createdAt,value
2019-01-29T00:01:39.268Z,13.77
2019-01-29T00:04:10.897Z,13.97
2019-01-29T00:06:42.633Z,15.03
2019-01-29T00:09:14.368Z,13.60
2019-01-29T00:11:46.011Z,12.83
2019-01-29T00:14:17.638Z,13.03
2019-01-29T00:16:49.264Z,13.40
2019-01-29T00:19:20.897Z,12.77
2019-01-29T00:21:52.548Z,14.97
2019-01-29T00:24:24.168Z,13.73
2019-01-29T00:26:55.816Z,13.47
2019-01-29T00:29:27.444Z,14.70
2019-01-29T00:31:59.082Z,13.17
2019-01-29T00:34:30.715Z,12.40
2019-01-29T00:37:02.359Z,12.87
2019-01-29T00:39:33.985Z,11.73
2019-01-29T00:42:05.626Z,11.23
2019-01-29T00:44:37.248Z,11.50
2019-01-29T00:47:08.881Z,11.00
2019-01-29T00:49:40.523Z,10.97
2019-01-29T00:52:12.249Z,9.07
2019-01-29T00:54:43.874Z,8.00
2019-01-29T00:57:15.508Z,9.23
2019-01-29T00:59:47.134Z,8.63
2019-01-29T01:02:18.763Z,8.70
2019-01-29T01:04:50.388Z,9.50
2019-01-29T01:07:22.257Z,9.27
2019-01-29T01:09:57.206Z,9.50
2019-01-29T01:12:27.555Z,9.67
2019-01-29T01:14:59.179Z,10.30
2019-01-29T01:17:30.827Z,10.87
2019-01-29T01:20:03.837Z,11.43
2019-01-29T01:22:35.635Z,10.93
2019-01-29T01:25:07.549Z,12.10
2019-01-29T01:27:39.298Z,12.67
2019-01-29T01:30:13.569Z,12.07
2019-01-29T01:32:45.321Z,12.97
2019-01-29T01:35:16.940Z,12.57
2019-01-29T01:37:48.589Z,12.83
2019-01-29T01:40:21.553Z,11.83
2019-01-29T01:42:53.281Z,11.73
2019-01-29T01:45:25.001Z,12.37
2019-01-29T01:47:56.640Z,13.03
2019-01-29T01:50:28.273Z,13.07
2019-01-29T01:52:59.913Z,12.33
2019-01-29T01:55:31.520Z,12.37
2019-01-29T01:58:03.357Z,12.40
2019-01-29T02:00:35.476Z,11.87
2019-01-29T02:03:07.121Z,10.77
2019-01-29T02:05:38.753Z,10.43
2019-01-29T02:08:10.384Z,10.50
2019-01-29T02:10:42.044Z,10.40
2019-01-29T02:13:13.674Z,9.47
2019-01-29T02:15:45.285Z,11.03
2019-01-29T02:18:16.927Z,10.50
2019-01-29T02:20:48.544Z,10.87
2019-01-29T02:23:20.169Z,10.67
2019-01-29T02:25:51.792Z,11.03
2019-01-29T02:28:23.436Z,11.03
2019-01-29T02:30:55.068Z,10.60
2019-01-29T02:33:26.701Z,11.43
2019-01-29T02:35:58.326Z,11.47
2019-01-29T02:38:29.974Z,11.70
2019-01-29T02:41:01.597Z,11.70
2019-01-29T02:43:33.228Z,12.23
2019-01-29T02:46:04.954Z,11.60
2019-01-29T02:48:36.611Z,11.77
2019-01-29T02:51:08.245Z,12.43
2019-01-29T02:53:40.071Z,12.23
2019-01-29T02:56:11.718Z,12.90
2019-01-29T02:58:43.437Z,13.10
2019-01-29T03:01:15.070Z,11.93
2019-01-29T03:03:46.697Z,12.47
2019-01-29T03:06:18.427Z,12.37
2019-01-29T03:08:50.152Z,12.93
2019-01-29T03:11:21.776Z,11.97
2019-01-29T03:13:53.630Z,13.80
2019-01-29T03:16:25.264Z,12.60
2019-01-29T03:18:56.890Z,12.07
2019-01-29T03:21:28.523Z,14.03
2019-01-29T03:24:00.152Z,13.20
2019-01-29T03:26:31.779Z,14.00
2019-01-29T03:29:03.628Z,11.50
2019-01-29T03:31:35.249Z,13.20
2019-01-29T03:34:06.874Z,13.80
2019-01-29T03:36:38.486Z,14.67
2019-01-29T03:39:10.133Z,12.13
2019-01-29T03:41:41.891Z,15.73
2019-01-29T03:44:13.520Z,14.03
2019-01-29T03:46:45.141Z,14.60
2019-01-29T03:49:16.769Z,14.97
2019-01-29T03:51:48.382Z,14.83
2019-01-29T03:54:20.018Z,15.63
2019-01-29T03:56:51.629Z,15.43
2019-01-29T03:59:23.270Z,15.63
2019-01-29T04:01:54.893Z,15.80
2019-01-29T04:04:26.524Z,13.53
2019-01-29T04:06:58.238Z,14.17
2019-01-29T04:09:29.881Z,13.17
2019-01-29T04:12:01.508Z,13.00
2019-01-29T04:14:33.133Z,12.37
2019-01-29T04:17:05.056Z,11.77
2019-01-29T04:19:36.792Z,13.10
2019-01-29T04:22:08.507Z,12.33
2019-01-29T04:24:40.144Z,11.67
2019-01-29T04:27:11.770Z,10.50
2019-01-29T04:29:43.395Z,11.23
2019-01-29T04:32:15.016Z,12.07
2019-01-29T04:34:46.677Z,11.37
2019-01-29T04:37:20.741Z,9.90
2019-01-29T04:39:52.637Z,11.20
2019-01-29T04:42:24.262Z,10.33
2019-01-29T04:44:55.878Z,10.60
2019-01-29T04:47:27.517Z,10.97
2019-01-29T04:49:59.166Z,10.07
2019-01-29T04:52:33.322Z,8.37
2019-01-29T04:55:06.034Z,8.57
2019-01-29T04:57:37.880Z,10.63
2019-01-29T05:00:12.464Z,10.70
2019-01-29T05:02:44.733Z,9.90
2019-01-29T05:05:17.670Z,10.80
2019-01-29T05:07:49.695Z,9.80
2019-01-29T05:10:21.625Z,10.57
2019-01-29T05:12:53.235Z,13.03
2019-01-29T05:15:24.986Z,12.00
2019-01-29T05:17:56.610Z,11.17
2019-01-29T05:20:28.244Z,12.33
2019-01-29T05:22:59.887Z,10.90
2019-01-29T05:25:31.615Z,11.57
2019-01-29T05:28:03.552Z,10.53
2019-01-29T05:30:35.193Z,11.77
2019-01-29T05:33:06.836Z,11.23
2019-01-29T05:35:38.461Z,11.17
2019-01-29T05:38:10.089Z,11.97
2019-01-29T05:40:41.726Z,10.60
2019-01-29T05:43:13.382Z,11.73
2019-01-29T05:45:44.997Z,11.33
2019-01-29T05:48:16.616Z,10.13
2019-01-29T05:50:48.274Z,10.13
2019-01-29T05:53:19.943Z,10.70
2019-01-29T05:55:51.644Z,10.50
2019-01-29T05:58:23.283Z,11.17
2019-01-29T06:00:54.916Z,11.23
2019-01-29T06:03:26.579Z,10.83
2019-01-29T06:05:58.202Z,12.23
2019-01-29T06:08:29.832Z,12.27
2019-01-29T06:11:01.467Z,13.17
2019-01-29T06:13:33.100Z,13.10
2019-01-29T06:16:04.730Z,12.17
2019-01-29T06:18:36.359Z,12.37
2019-01-29T06:21:08.088Z,13.10
2019-01-29T06:23:39.713Z,11.73
2019-01-29T06:26:11.349Z,12.67
2019-01-29T06:28:43.064Z,12.07
2019-01-29T06:31:14.694Z,12.37
2019-01-29T06:33:46.331Z,10.33
2019-01-29T06:36:17.976Z,11.60
2019-01-29T06:38:49.609Z,12.00
2019-01-29T06:41:21.350Z,11.07
2019-01-29T06:43:52.983Z,10.30
2019-01-29T06:46:24.629Z,11.30
2019-01-29T06:48:56.253Z,11.60
2019-01-29T06:51:27.885Z,12.67
2019-01-29T06:53:59.505Z,13.77
2019-01-29T06:56:31.144Z,13.13
2019-01-29T06:59:02.905Z,12.07
2019-01-29T07:01:34.546Z,12.73
2019-01-29T07:04:06.180Z,12.00
2019-01-29T07:06:37.795Z,12.60
2019-01-29T07:09:09.640Z,11.90
2019-01-29T07:11:41.301Z,12.37
2019-01-29T07:14:12.927Z,12.07
2019-01-29T07:16:54.991Z,13.10
2019-01-29T07:19:35.015Z,12.00
2019-01-29T07:22:06.655Z,12.43
2019-01-29T07:24:42.862Z,11.80
2019-01-29T07:27:11.814Z,11.73
2019-01-29T07:29:43.445Z,13.00
2019-01-29T07:32:15.094Z,11.50
2019-01-29T07:34:46.736Z,10.97
2019-01-29T07:37:22.170Z,11.33
2019-01-29T07:39:51.993Z,11.70
2019-01-29T07:42:23.639Z,11.70
2019-01-29T07:44:55.268Z,11.13
2019-01-29T07:47:26.889Z,11.00
2019-01-29T07:49:58.514Z,12.10
2019-01-29T07:52:30.165Z,11.40
2019-01-29T07:55:01.908Z,12.10
2019-01-29T07:57:33.627Z,11.13
2019-01-29T08:00:06.061Z,11.33
2019-01-29T08:02:37.717Z,12.53
2019-01-29T08:05:09.568Z,11.70
2019-01-29T08:07:41.206Z,11.80
2019-01-29T08:10:13.458Z,12.50
2019-01-29T08:12:45.195Z,11.90
2019-01-29T08:15:17.265Z,11.97
2019-01-29T08:17:49.139Z,11.77
2019-01-29T08:20:20.763Z,12.03
2019-01-29T08:22:52.386Z,11.30
2019-01-29T08:25:24.010Z,11.33
2019-01-29T08:27:55.641Z,11.60
2019-01-29T08:30:27.266Z,10.33
2019-01-29T08:32:58.900Z,10.80
2019-01-29T08:35:30.535Z,10.20
2019-01-29T08:38:02.181Z,10.23
2019-01-29T08:40:33.827Z,10.40
2019-01-29T08:43:05.461Z,10.40
2019-01-29T08:45:37.092Z,10.47
2019-01-29T08:48:08.761Z,9.93
2019-01-29T08:50:40.397Z,9.03
2019-01-29T08:53:12.038Z,10.73
2019-01-29T08:55:43.673Z,11.23
2019-01-29T08:58:15.358Z,11.80
2019-01-29T09:00:46.985Z,11.23
2019-01-29T09:03:18.631Z,10.37
2019-01-29T09:05:50.254Z,11.93
2019-01-29T09:08:21.896Z,11.00
2019-01-29T09:10:53.546Z,12.90
2019-01-29T09:13:25.181Z,12.30
2019-01-29T09:15:56.821Z,11.70
2019-01-29T09:18:28.450Z,11.47
2019-01-29T09:21:00.073Z,13.13
2019-01-29T09:23:31.713Z,11.47
2019-01-29T09:26:03.345Z,12.03
2019-01-29T09:28:34.984Z,12.07
2019-01-29T09:31:06.612Z,12.27
2019-01-29T09:33:38.264Z,12.97
2019-01-29T09:36:09.881Z,11.50
2019-01-29T09:38:41.525Z,12.07
2019-01-29T09:41:13.144Z,12.23
2019-01-29T09:43:44.772Z,12.87
2019-01-29T09:46:16.706Z,12.77
2019-01-29T09:48:48.362Z,13.47
2019-01-29T09:51:20.009Z,10.80
2019-01-29T09:53:51.667Z,11.73
2019-01-29T09:56:23.289Z,11.57
2019-01-29T09:58:54.934Z,11.50
2019-01-29T10:01:26.558Z,13.47
2019-01-29T10:03:58.185Z,12.10
2019-01-29T10:06:29.827Z,13.77
2019-01-29T10:09:01.460Z,12.67
2019-01-29T10:11:33.129Z,11.17
2019-01-29T10:14:05.204Z,11.60
2019-01-29T10:16:36.841Z,12.00
2019-01-29T10:19:08.506Z,11.77
2019-01-29T10:21:40.230Z,11.93
2019-01-29T10:24:11.870Z,11.43
2019-01-29T10:26:43.502Z,12.10
2019-01-29T10:29:15.234Z,12.10
2019-01-29T10:31:46.869Z,12.40
2019-01-29T10:34:18.508Z,11.77
2019-01-29T10:36:50.171Z,11.27
2019-01-29T10:39:21.826Z,12.37
2019-01-29T10:41:53.799Z,12.17
2019-01-29T10:44:25.505Z,11.30
2019-01-29T10:46:57.116Z,12.17
2019-01-29T10:49:28.759Z,11.60
2019-01-29T10:52:00.390Z,10.87
2019-01-29T10:54:32.050Z,11.63
2019-01-29T10:57:03.890Z,11.10
2019-01-29T10:59:35.516Z,11.63
2019-01-29T11:02:07.343Z,11.67
2019-01-29T11:04:39.365Z,12.03
2019-01-29T11:07:11.094Z,11.00
2019-01-29T11:09:42.741Z,10.73
2019-01-29T11:12:14.340Z,11.23
2019-01-29T11:14:45.984Z,11.87
2019-01-29T11:17:17.620Z,10.73
2019-01-29T11:19:49.352Z,10.50
2019-01-29T11:22:20.988Z,10.90
2019-01-29T11:24:52.625Z,10.33
2019-01-29T11:27:24.269Z,11.13
2019-01-29T11:29:55.897Z,10.47
2019-01-29T11:32:27.609Z,11.90
2019-01-29T11:34:59.252Z,11.07
2019-01-29T11:37:30.882Z,12.53
2019-01-29T11:40:03.191Z,13.30
2019-01-29T11:42:34.815Z,12.50
2019-01-29T11:45:10.040Z,11.17
2019-01-29T11:47:41.660Z,12.23
2019-01-29T11:50:13.629Z,11.10
2019-01-29T11:52:45.343Z,11.80
2019-01-29T11:55:17.185Z,11.17
2019-01-29T11:57:48.802Z,10.87
2019-01-29T12:00:29.852Z,12.63
2019-01-29T12:03:01.599Z,11.40
2019-01-29T12:05:33.338Z,10.33
2019-01-29T12:08:05.750Z,10.53
2019-01-29T12:10:37.603Z,9.37
2019-01-29T12:13:09.228Z,9.40
2019-01-29T12:15:41.068Z,10.30
2019-01-29T12:18:12.795Z,9.97
2019-01-29T12:20:44.536Z,9.90
2019-01-29T12:23:16.162Z,8.10
2019-01-29T12:25:47.909Z,9.10
2019-01-29T12:28:19.530Z,8.80
2019-01-29T12:30:51.265Z,9.43
2019-01-29T12:33:23.001Z,9.03
2019-01-29T12:35:54.659Z,10.37
2019-01-29T12:38:26.370Z,8.70
2019-01-29T12:40:58.018Z,7.47
2019-01-29T12:43:29.648Z,8.03
2019-01-29T12:46:01.504Z,6.90
2019-01-29T12:48:33.130Z,6.93
2019-01-29T12:51:08.573Z,6.23
2019-01-29T12:53:41.548Z,5.07
2019-01-29T12:56:21.273Z,6.37
2019-01-29T12:58:46.718Z,5.77
2019-01-29T13:01:18.360Z,6.03
2019-01-29T13:03:49.978Z,5.80
2019-01-29T13:06:21.624Z,6.57
2019-01-29T13:08:53.260Z,6.50
2019-01-29T13:11:24.906Z,5.37
2019-01-29T13:13:56.824Z,5.10
2019-01-29T13:16:28.457Z,4.93
2019-01-29T13:19:00.102Z,5.20
2019-01-29T13:21:31.742Z,4.67
2019-01-29T13:24:03.502Z,6.33
2019-01-29T13:26:35.136Z,6.53
2019-01-29T13:29:06.869Z,5.43
2019-01-29T13:31:38.494Z,6.20
2019-01-29T13:34:10.120Z,7.90
2019-01-29T13:36:41.761Z,5.87
2019-01-29T13:39:13.418Z,5.17
2019-01-29T13:41:45.059Z,6.97
2019-01-29T13:44:16.681Z,7.90
2019-01-29T13:46:48.312Z,6.20
2019-01-29T13:49:19.945Z,7.27
2019-01-29T13:51:51.582Z,6.50
2019-01-29T13:54:23.967Z,6.20
2019-01-29T13:56:55.746Z,7.03
2019-01-29T13:59:27.366Z,5.67
2019-01-29T14:01:59.017Z,7.07
2019-01-29T14:04:30.645Z,6.30
2019-01-29T14:07:02.378Z,7.00
2019-01-29T14:09:34.029Z,6.80
2019-01-29T14:12:05.875Z,7.00
2019-01-29T14:14:37.498Z,6.70
2019-01-29T14:17:09.142Z,6.50
2019-01-29T14:19:40.750Z,6.43
2019-01-29T14:22:12.417Z,6.63
2019-01-29T14:24:44.067Z,6.17
2019-01-29T14:27:15.692Z,6.60
2019-01-29T14:29:47.321Z,6.27
2019-01-29T14:32:19.006Z,7.87
2019-01-29T14:34:50.732Z,6.80
2019-01-29T14:37:22.373Z,6.83
2019-01-29T14:40:09.797Z,7.20
2019-01-29T14:42:41.577Z,6.67
2019-01-29T14:45:18.014Z,6.03
2019-01-29T14:47:49.748Z,6.87
2019-01-29T14:50:21.995Z,7.13
2019-01-29T14:52:53.747Z,6.07
2019-01-29T14:55:25.981Z,5.77
2019-01-29T14:57:57.630Z,6.47
2019-01-29T15:00:29.573Z,6.00
2019-01-29T15:03:02.163Z,6.67
2019-01-29T15:05:33.784Z,6.10
2019-01-29T15:08:05.731Z,7.07
2019-01-29T15:10:37.456Z,6.27
2019-01-29T15:13:09.189Z,5.77
2019-01-29T15:15:46.240Z,6.17
2019-01-29T15:18:21.069Z,5.90
2019-01-29T15:20:52.796Z,4.93
2019-01-29T15:23:24.434Z,5.83
2019-01-29T15:25:56.062Z,6.30
2019-01-29T15:28:27.696Z,5.47
2019-01-29T15:30:59.349Z,6.47
2019-01-29T15:33:30.994Z,5.33
2019-01-29T15:36:03.425Z,5.00
2019-01-29T15:38:35.053Z,6.57
2019-01-29T15:41:06.896Z,4.97
2019-01-29T15:43:38.657Z,4.10
2019-01-29T15:46:10.297Z,5.30
2019-01-29T15:48:42.077Z,4.70
2019-01-29T15:51:13.721Z,5.03
2019-01-29T15:53:45.356Z,7.53
2019-01-29T15:56:16.978Z,4.57
2019-01-29T15:58:48.630Z,4.57
2019-01-29T16:01:20.251Z,4.03
2019-01-29T16:03:51.901Z,4.50
2019-01-29T16:06:23.607Z,4.40
2019-01-29T16:08:55.255Z,4.50
2019-01-29T16:11:26.901Z,4.43
2019-01-29T16:13:58.559Z,4.63
2019-01-29T16:16:30.180Z,5.20
2019-01-29T16:19:01.847Z,4.53
2019-01-29T16:21:33.606Z,4.00
2019-01-29T16:24:05.253Z,5.13
2019-01-29T16:26:36.909Z,4.40
2019-01-29T16:29:08.543Z,4.27
2019-01-29T16:31:40.185Z,4.47
2019-01-29T16:34:11.810Z,4.20
2019-01-29T16:36:43.453Z,4.70
2019-01-29T16:39:15.089Z,5.63
2019-01-29T16:41:46.742Z,4.83
2019-01-29T16:44:18.396Z,5.37
2019-01-29T16:46:50.029Z,4.90
2019-01-29T16:49:21.660Z,5.67
2019-01-29T16:51:53.286Z,5.00
2019-01-29T16:54:24.937Z,4.53
2019-01-29T16:56:56.591Z,5.47
2019-01-29T16:59:28.231Z,5.07
2019-01-29T17:01:59.876Z,5.03
2019-01-29T17:04:31.512Z,5.27
2019-01-29T17:07:03.337Z,4.63
2019-01-29T17:09:34.954Z,9.77
2019-01-29T17:12:06.631Z,5.80
2019-01-29T17:14:38.266Z,4.43
2019-01-29T17:17:09.916Z,3.97
2019-01-29T17:19:41.549Z,4.10
2019-01-29T17:22:13.202Z,4.57
2019-01-29T17:24:44.836Z,4.13
2019-01-29T17:27:16.525Z,4.97
2019-01-29T17:29:48.155Z,4.80
2019-01-29T17:32:19.830Z,4.80
2019-01-29T17:34:51.473Z,4.37
2019-01-29T17:37:23.116Z,4.43
2019-01-29T17:39:54.750Z,3.93
2019-01-29T17:42:26.381Z,4.10
2019-01-29T17:44:58.032Z,3.57
2019-01-29T17:47:29.673Z,4.20
2019-01-29T17:50:01.514Z,4.77
2019-01-29T17:52:33.157Z,5.43
2019-01-29T17:55:06.470Z,4.97
2019-01-29T17:57:38.116Z,4.77
2019-01-29T18:00:13.465Z,4.27
2019-01-29T18:02:48.265Z,6.20
2019-01-29T18:05:20.106Z,5.23
2019-01-29T18:07:51.740Z,4.80
2019-01-29T18:10:23.589Z,5.13
2019-01-29T18:12:55.280Z,5.93
2019-01-29T18:15:27.260Z,5.47
2019-01-29T18:17:59.005Z,5.70
2019-01-29T18:20:30.628Z,5.30
2019-01-29T18:23:02.275Z,5.50
2019-01-29T18:25:33.917Z,4.50
2019-01-29T18:28:08.290Z,5.00
2019-01-29T18:30:39.333Z,5.13
2019-01-29T18:33:10.999Z,4.50
2019-01-29T18:35:42.721Z,4.40
2019-01-29T18:38:14.365Z,4.97
2019-01-29T18:40:49.333Z,4.80
2019-01-29T18:43:20.973Z,5.20
2019-01-29T18:45:52.698Z,5.40
2019-01-29T18:48:24.333Z,5.10
2019-01-29T18:50:56.197Z,5.50
2019-01-29T18:53:27.824Z,5.17
2019-01-29T18:55:59.471Z,6.20
2019-01-29T18:58:31.123Z,5.70
2019-01-29T19:01:03.066Z,5.63
2019-01-29T19:03:34.779Z,6.20
2019-01-29T19:06:06.550Z,5.33
2019-01-29T19:08:38.205Z,6.50
2019-01-29T19:11:09.957Z,6.07
2019-01-29T19:13:41.614Z,6.63
2019-01-29T19:16:15.693Z,6.73
2019-01-29T19:18:46.926Z,7.53
2019-01-29T19:21:18.716Z,5.90
2019-01-29T19:23:50.377Z,6.77
2019-01-29T19:26:22.161Z,5.87
2019-01-29T19:28:53.877Z,6.73
2019-01-29T19:31:25.541Z,5.73
2019-01-29T19:33:57.218Z,5.80
2019-01-29T19:36:28.881Z,5.40
2019-01-29T19:39:00.552Z,5.90
2019-01-29T19:41:32.218Z,5.20
2019-01-29T19:44:03.885Z,6.33
2019-01-29T19:46:35.568Z,5.90
2019-01-29T19:49:07.217Z,5.13
2019-01-29T19:51:38.978Z,5.43
2019-01-29T19:54:10.610Z,5.33
2019-01-29T19:56:42.539Z,6.50
2019-01-29T19:59:14.296Z,5.47
2019-01-29T20:01:45.984Z,6.47
2019-01-29T20:04:17.729Z,6.30
2019-01-29T20:06:49.400Z,6.67
2019-01-29T20:09:21.067Z,6.10
2019-01-29T20:11:52.854Z,6.43
2019-01-29T20:14:24.500Z,7.00
2019-01-29T20:16:56.189Z,6.90
2019-01-29T20:19:27.910Z,6.80
2019-01-29T20:21:59.577Z,6.87
2019-01-29T20:24:31.261Z,7.23
2019-01-29T20:27:02.962Z,7.23
2019-01-29T20:29:34.609Z,7.00
2019-01-29T20:32:06.430Z,7.20
2019-01-29T20:34:38.087Z,8.27
2019-01-29T20:37:09.887Z,7.03
2019-01-29T20:39:41.530Z,6.57
2019-01-29T20:42:13.210Z,6.93
2019-01-29T20:44:44.850Z,5.80
2019-01-29T20:47:16.560Z,5.90
2019-01-29T20:49:48.209Z,6.43
2019-01-29T20:52:19.942Z,6.50
2019-01-29T20:54:51.604Z,7.00
2019-01-29T20:57:23.293Z,7.43
2019-01-29T20:59:54.989Z,6.97
2019-01-29T21:02:26.764Z,7.23
2019-01-29T21:04:58.454Z,5.17
2019-01-29T21:07:30.129Z,6.23
2019-01-29T21:10:01.843Z,6.60
2019-01-29T21:12:33.577Z,6.80
2019-01-29T21:15:08.113Z,6.50
2019-01-29T21:17:39.787Z,7.53
2019-01-29T21:20:13.808Z,8.03
2019-01-29T21:22:45.462Z,8.40
2019-01-29T21:25:17.222Z,7.83
2019-01-29T21:27:48.977Z,8.20
2019-01-29T21:30:28.921Z,8.37
2019-01-29T21:33:00.553Z,7.87
2019-01-29T21:35:32.310Z,7.50
2019-01-29T21:38:04.452Z,8.30
2019-01-29T21:40:36.088Z,8.80
2019-01-29T21:43:07.728Z,8.50
2019-01-29T21:45:39.469Z,8.40
2019-01-29T21:48:11.194Z,8.20
2019-01-29T21:50:42.837Z,8.33
2019-01-29T21:53:14.490Z,9.13
2019-01-29T21:55:46.138Z,11.27
2019-01-29T21:58:17.753Z,9.57
2019-01-29T22:00:49.506Z,9.73
2019-01-29T22:03:21.143Z,9.63
2019-01-29T22:05:52.886Z,9.33
2019-01-29T22:08:24.499Z,11.30
2019-01-29T22:10:56.250Z,10.73
2019-01-29T22:13:27.982Z,11.50
2019-01-29T22:15:59.637Z,11.40
2019-01-29T22:18:31.259Z,10.67
2019-01-29T22:21:02.996Z,11.27
2019-01-29T22:23:34.628Z,10.73
2019-01-29T22:26:06.261Z,12.13
2019-01-29T22:28:37.884Z,12.17
2019-01-29T22:31:09.525Z,12.47
2019-01-29T22:33:41.163Z,14.67
2019-01-29T22:36:12.792Z,12.10
2019-01-29T22:38:44.420Z,13.97
2019-01-29T22:41:16.050Z,13.50
2019-01-29T22:43:47.669Z,13.57
2019-01-29T22:46:19.313Z,14.20
2019-01-29T22:48:50.946Z,14.03
2019-01-29T22:51:22.582Z,14.90
2019-01-29T22:53:54.231Z,14.00
2019-01-29T22:56:25.856Z,14.20
2019-01-29T22:58:57.577Z,13.10
2019-01-29T23:01:35.732Z,13.23
2019-01-29T23:04:12.722Z,13.77
2019-01-29T23:06:55.326Z,14.47
2019-01-29T23:09:27.065Z,14.80
2019-01-29T23:11:58.699Z,16.97
2019-01-29T23:14:30.333Z,20.77
2019-01-29T23:17:02.076Z,16.80
2019-01-29T23:19:33.700Z,15.67
2019-01-29T23:22:05.445Z,15.87
2019-01-29T23:24:37.064Z,17.73
2019-01-29T23:27:09.041Z,18.50
2019-01-29T23:29:43.568Z,16.70
2019-01-29T23:32:14.225Z,17.97
2019-01-29T23:34:45.861Z,17.40
2019-01-29T23:37:17.507Z,17.53
2019-01-29T23:39:49.138Z,16.77
2019-01-29T23:42:20.885Z,18.17
2019-01-29T23:44:52.508Z,17.80
2019-01-29T23:47:24.145Z,17.60
2019-01-29T23:49:55.773Z,18.63
2019-01-29T23:52:27.401Z,18.17
2019-01-29T23:54:59.029Z,17.97
2019-01-29T23:57:30.653Z,19.63
